Orient, Maine
Current Conditions -  °F | °C
As of 12:07 PM on Monday 22 Dec 2014 (Local Time) from KHUL Reporting Station
Overcast Overcast  
Wind Chill: 28°   Ceiling: 4300
Heat Index: 28°   Visibility: 10mi
Dew Point: 23°   Wind: 3mph
Humidity: 81%   Direction: 160°SSE
Pressure: 30.39"   Gusts: NA
Location:  45.82°N, 67.84°W
Report Text: KHUL 221707Z AUTO 16003KT 10SM SCT025 OVC043 M02/M05 A3039 RMK AO2 T10221050
Loading
Personal Weather Stations






























Interactive Weather Map New forecast layout! Learn more

10-Day Weather Forecast

Advertisements
Track Severe Weather on mobile